大阪/伊丹 の空港の天気 - METARとTAF

大阪空港 ( RJOO / ITM ) - 兵庫県伊丹市
飛行場実況気象(Metar)
観測時間06/25 12:00 JST (06/25 03:00 UTC)
風向・風速南西 3m/s
視程10km以上
天気現象
少しの雲 雲底高度 910m
気温30℃
湿度46%
気圧1012hPa
METARRJOO 250300Z 23005KT 160V290 9999 FEW030 30/17 Q1012 RMK 1CU030 A2990
過去の天気等 Google飛行場航空写真 Wunderground天気予報

過去48時間のMETAR

飛行場予報(TAF)
発表時間: 6/25 08:07 JST (6/24 23:07 UTC)
予報対象時間: 25日9時 JST ~ 26日15時 JST
風向・風速南西 4m/s
視程10km以上
少しの雲 雲底高度 760m
25日18時 JST ~ 25日20時 JST に徐々に
風向・風速北西 2m/s
26日6時 JST ~ 26日9時 JST に徐々に
風向・風速南西 4m/s
TAF RJOO 242307Z 2500/2606 22007KT 9999 FEW025
BECMG 2509/2511 32004KT
BECMG 2521/2600 22008KT
日本の空港のMETAR・TAFへのリンク

RJTT 東京国際空港
RJAA 新東京国際空港
RJBB 関西国際空港
RJOO 大阪空港
RJGG 中部国際空港
RJCC 新千歳空港
RJFF 福岡空港
ROAH 那覇空港


RJEC 旭川空港
RJCH 函館空港
RJCK 釧路空港
RJCM 女満別空港
RJCB 帯広空港
RJSA 青森空港
RJSS 仙台空港
RJSK 秋田空港
RJSF 福島空港
RJAH 茨城空港
RJSN 新潟空港
RJNT 富山空港
RJNK 小松飛行場
RJNS 静岡空港
RJOH 美保飛行場
RJOC 出雲空港
RJOB 岡山空港
RJOA 広島空港
RJOI 岩国飛行場
RJOT 高松空港
RJOM 松山空港
RJOK 高知空港
RJFR 北九州空港
RJFT 熊本空港
RJFU 長崎空港
RJFS 佐賀空港
RJFO 大分空港
RJFM 宮崎空港
RJFK 鹿児島空港
ROIG 石垣島空港
RJTY 横田飛行場
ROTM 普天間飛行場
RODN 嘉手納飛行場